LBSF/SOF METAR and TAF weather

Enter ICAO airport designator
Station Type Date Time Source
LBSF METAR 2021/09/28 15:30 UTC NOAA

LBSF 281530Z 11006KT 6000 RA BKN026 OVC040 16/13 Q1020 NOSIG


Station Type Date Time Source
LBSF Decoded METAR 2021/09/28 15:30 UTC NOAA

Sofia Observ. , Bulgaria (LBSF) 42-39N 023-23E 595M
Sep 28, 2021 - 11:30 AM EDT / 2021.09.28 1530 UTC
Wind: from the ESE (110 degrees) at 7 MPH (6 KT):0
Visibility: 3 mile(s):0
Sky conditions: overcast
Weather: rain
Temperature: 60 F (16 C)
Dew Point: 55 F (13 C)
Relative Humidity: 82%
Pressure (altimeter): 30.12 in. Hg (1020 hPa)
ob: LBSF 281530Z 11006KT 6000 RA BKN026 OVC040 16/13 Q1020 NOSIG
cycle: 15

Station Type Date Time Source
LBSF TAF 2021/09/28 12:18 UTC NOAA

TAF LBSF 281100Z 2812/2912 09010KT 9999 SCT050 SCT070
TEMPO 2812/2819 5000 RA BKN015 OVC040 PROB40 2812/2815 VRB16G26KT 3000 TSRA SCT020 FEW030CB BKN050
TEMPO 2900/2906 5000 BR SCT010

Example: see airport list